Time;durP1;ratioP1;P1;durP2;ratioP2;P2;SDS_P1;SDS_P2;PMS_P1;PMS_P2;Temp;Humidity;BMP_temperature;BMP_pressure;BME280_temperature;BME280_humidity;BME280_pressure;Samples;Min_cycle;Max_cycle;Signal;HPM_P1;HPM_P2
2024/01/27 00:02:02;;;;;;;12.33;2.53;;;4.30;1.00;;;;;;10327544;28;20201;-83
2024/01/27 00:07:25;;;;;;;12.50;2.67;;;4.10;99.90;;;;;;10380945;28;20508;-84
2024/01/27 00:12:46;;;;;;;14.87;2.33;;;4.20;1.00;;;;;;10357396;28;20203;-84
2024/01/27 00:18:08;;;;;;;14.33;2.73;;;4.20;15.60;;;;;;10269060;28;20584;-83
2024/01/27 00:23:29;;;;;;;17.27;2.93;;;4.20;1.00;;;;;;10383154;28;20204;-83
2024/01/27 00:28:51;;;;;;;14.60;2.97;;;4.20;99.90;;;;;;10353888;28;20340;-82
2024/01/27 00:34:12;;;;;;;17.03;3.23;;;4.10;99.90;;;;;;10300707;28;20234;-85
2024/01/27 00:39:45;;;;;;;16.13;2.90;;;4.20;99.90;;;;;;10300511;28;20542;-83
2024/01/27 00:45:07;;;;;;;13.73;2.93;;;4.00;99.90;;;;;;10371921;28;20253;-82
2024/01/27 00:50:30;;;;;;;17.27;3.10;;;4.10;99.90;;;;;;10356000;28;20271;-84
2024/01/27 00:55:51;;;;;;;14.03;2.60;;;4.10;36.70;;;;;;10356901;28;20235;-83
2024/01/27 01:01:13;;;;;;;19.40;3.07;;;4.10;67.10;;;;;;10419001;28;20212;-83
2024/01/27 01:06:34;;;;;;;16.70;2.70;;;4.10;99.90;;;;;;10346862;28;20209;-82
2024/01/27 01:11:58;;;;;;;14.63;2.90;;;3.90;43.80;;;;;;10336079;28;20254;-84
2024/01/27 01:17:22;;;;;;;14.23;2.30;;;3.90;1.00;;;;;;10428931;28;20268;-82
2024/01/27 01:22:43;;;;;;;11.37;1.87;;;3.90;1.00;;;;;;10360625;28;20225;-83
2024/01/27 01:28:05;;;;;;;12.00;2.23;;;3.90;1.00;;;;;;10333199;28;20206;-82
2024/01/27 01:33:28;;;;;;;12.87;2.20;;;3.80;99.90;;;;;;10365797;28;20280;-80
2024/01/27 01:38:50;;;;;;;4.53;1.63;;;3.80;99.90;;;;;;10339693;28;20253;-80
2024/01/27 01:44:11;;;;;;;7.33;1.50;;;3.80;1.00;;;;;;10388172;28;20191;-82
2024/01/27 01:49:33;;;;;;;5.80;1.40;;;3.60;1.00;;;;;;10284499;28;20402;-81
2024/01/27 01:54:54;;;;;;;10.73;1.30;;;3.60;99.90;;;;;;10354730;28;20310;-80
2024/01/27 02:00:16;;;;;;;7.07;1.60;;;3.60;1.00;;;;;;10366990;28;20229;-81
2024/01/27 02:05:37;;;;;;;5.53;1.20;;;3.40;1.00;;;;;;10375533;28;20194;-80
2024/01/27 02:11:02;;;;;;;3.93;1.10;;;3.40;38.50;;;;;;10388295;28;20213;-79
2024/01/27 02:16:24;;;;;;;6.60;1.97;;;3.50;42.60;;;;;;10423385;28;20222;-82
2024/01/27 02:21:45;;;;;;;6.57;1.47;;;3.50;1.00;;;;;;10500707;28;20230;-79
2024/01/27 02:27:08;;;;;;;3.33;0.73;;;3.30;1.00;;;;;;10518059;28;20202;-83
2024/01/27 02:32:30;;;;;;;3.70;1.27;;;3.20;99.90;;;;;;10395772;28;20207;-84
2024/01/27 02:37:53;;;;;;;4.07;0.93;;;3.20;1.00;;;;;;10295389;28;20238;-81
2024/01/27 02:43:14;;;;;;;4.00;0.80;;;3.20;99.90;;;;;;10303725;28;20199;-82
2024/01/27 02:48:36;;;;;;;3.97;1.57;;;3.10;99.90;;;;;;10360396;28;20211;-83
2024/01/27 02:53:57;;;;;;;2.47;0.80;;;3.10;1.00;;;;;;10334780;28;20227;-83
2024/01/27 02:59:19;;;;;;;7.17;1.43;;;3.00;1.00;;;;;;10356541;28;20260;-84
2024/01/27 03:04:41;;;;;;;6.53;1.30;;;3.00;99.90;;;;;;10391244;28;20205;-84
2024/01/27 03:10:03;;;;;;;4.83;1.10;;;2.90;1.00;;;;;;10303920;28;20279;-81
2024/01/27 03:15:24;;;;;;;7.07;1.70;;;3.00;99.90;;;;;;10313348;28;20218;-81
2024/01/27 03:20:45;;;;;;;4.97;1.10;;;3.10;1.00;;;;;;10514480;28;20239;-82
2024/01/27 03:26:10;;;;;;;6.27;1.60;;;3.00;1.00;;;;;;10517414;28;20195;-84
2024/01/27 03:31:32;;;;;;;4.40;1.20;;;3.00;39.80;;;;;;10520913;28;20194;-83
2024/01/27 03:36:53;;;;;;;5.03;1.10;;;3.00;99.90;;;;;;10507412;28;20232;-84
2024/01/27 03:42:14;;;;;;;9.67;1.67;;;3.10;99.90;;;;;;10371255;28;20229;-84
2024/01/27 03:47:36;;;;;;;5.17;1.57;;;3.20;1.00;;;;;;10301790;28;20248;-84
2024/01/27 03:52:57;;;;;;;5.27;1.10;;;3.20;99.90;;;;;;10414680;28;20565;-83
2024/01/27 03:58:18;;;;;;;6.47;1.30;;;3.10;99.90;;;;;;10380652;28;20340;-84
2024/01/27 04:03:39;;;;;;;6.77;1.30;;;3.20;99.90;;;;;;10366159;28;20206;-85
2024/01/27 04:09:01;;;;;;;8.87;1.47;;;3.10;1.00;;;;;;10328190;28;20229;-83
2024/01/27 04:14:22;;;;;;;3.23;0.80;;;3.10;1.00;;;;;;10316749;28;20202;-83
2024/01/27 04:19:44;;;;;;;4.80;1.07;;;3.10;99.90;;;;;;10355604;28;20254;-83
2024/01/27 04:25:07;;;;;;;4.97;1.00;;;3.10;1.00;;;;;;10371485;28;20211;-83
2024/01/27 04:30:29;;;;;;;3.13;1.20;;;3.20;1.00;;;;;;10358129;28;20198;-83
2024/01/27 04:35:51;;;;;;;2.87;0.80;;;3.10;1.00;;;;;;10338519;28;20248;-83
2024/01/27 04:41:13;;;;;;;1.00;0.70;;;3.10;99.90;;;;;;10383886;28;20221;-83
2024/01/27 04:46:34;;;;;;;5.33;1.07;;;3.20;1.00;;;;;;10408845;28;20206;-83
2024/01/27 04:51:56;;;;;;;3.33;1.30;;;3.10;1.00;;;;;;10378761;28;20207;-83
2024/01/27 04:57:17;;;;;;;2.07;0.90;;;3.00;99.90;;;;;;10378172;28;20264;-83
2024/01/27 05:02:42;;;;;;;2.03;0.70;;;3.00;1.00;;;;;;10307218;28;20194;-83
2024/01/27 05:08:03;;;;;;;1.13;0.70;;;2.90;1.00;;;;;;10389665;28;20206;-83
2024/01/27 05:13:25;;;;;;;1.37;0.70;;;2.90;99.90;;;;;;10379738;28;20393;-84
2024/01/27 05:18:46;;;;;;;1.93;0.60;;;2.90;1.00;;;;;;10477063;28;20243;-84
2024/01/27 05:24:08;;;;;;;0.57;0.57;;;2.90;99.90;;;;;;10519588;28;20249;-81
2024/01/27 05:29:30;;;;;;;1.47;0.60;;;2.80;1.00;;;;;;10504670;28;20226;-82
2024/01/27 05:34:51;;;;;;;2.65;0.60;;;2.70;1.00;;;;;;10502019;28;20502;-84
2024/01/27 05:40:14;;;;;;;1.97;0.70;;;2.70;1.00;;;;;;10324785;28;20447;-84
2024/01/27 05:45:36;;;;;;;1.17;0.60;;;2.60;99.90;;;;;;10305435;28;20203;-81
2024/01/27 05:50:59;;;;;;;0.53;0.50;;;2.60;79.30;;;;;;10375193;28;20226;-83
2024/01/27 05:56:21;;;;;;;1.43;0.63;;;2.60;99.90;;;;;;10323399;28;20305;-81
2024/01/27 06:01:44;;;;;;;1.77;1.20;;;2.60;1.00;;;;;;10323558;28;20204;-81
2024/01/27 06:07:07;;;;;;;1.53;1.10;;;2.60;1.00;;;;;;10374264;28;20700;-81
2024/01/27 06:12:31;;;;;;;1.00;0.80;;;2.50;1.00;;;;;;10390705;28;20230;-81
2024/01/27 06:17:53;;;;;;;1.33;0.70;;;2.40;1.00;;;;;;10424193;28;20232;-83
2024/01/27 06:23:16;;;;;;;3.37;1.40;;;2.40;1.00;;;;;;10514755;28;20191;-81
2024/01/27 06:28:47;;;;;;;5.90;3.87;;;2.30;99.90;;;;;;10502118;28;20277;-84
2024/01/27 06:34:08;;;;;;;4.27;2.90;;;2.40;1.00;;;;;;10515464;28;20198;-83
2024/01/27 06:39:29;;;;;;;5.50;4.03;;;2.30;1.00;;;;;;10340479;28;20241;-84
2024/01/27 06:44:51;;;;;;;4.60;2.90;;;2.30;1.00;;;;;;10304786;28;20225;-83
2024/01/27 06:50:14;;;;;;;2.17;1.33;;;2.30;99.90;;;;;;10392447;28;20277;-83
2024/01/27 06:55:37;;;;;;;4.27;2.20;;;2.30;99.90;;;;;;10304718;28;20271;-84
2024/01/27 07:01:02;;;;;;;2.10;1.33;;;2.40;99.90;;;;;;10322188;28;20213;-84
2024/01/27 07:06:31;;;;;;;2.60;1.40;;;2.40;1.00;;;;;;10286488;28;20270;-84
2024/01/27 07:11:54;;;;;;;3.70;1.97;;;2.50;1.00;;;;;;10316363;28;20512;-83
2024/01/27 07:17:15;;;;;;;2.43;1.50;;;2.60;1.00;;;;;;10452134;28;20226;-84
2024/01/27 07:22:37;;;;;;;7.93;2.57;;;2.60;1.00;;;;;;10309846;28;20209;-82
2024/01/27 07:27:58;;;;;;;3.00;2.00;;;2.70;1.00;;;;;;10285935;28;20211;-84
2024/01/27 07:33:20;;;;;;;2.77;1.30;;;2.70;1.00;;;;;;10366579;28;20195;-81
2024/01/27 07:38:43;;;;;;;1.97;1.10;;;2.70;1.00;;;;;;10304570;28;20237;-81
2024/01/27 07:44:11;;;;;;;3.50;1.77;;;2.70;1.00;;;;;;10380665;28;20384;-83
2024/01/27 07:49:34;;;;;;;1.70;1.30;;;2.70;1.00;;;;;;10396982;28;20272;-84
2024/01/27 07:54:55;;;;;;;2.23;1.50;;;2.80;1.00;;;;;;10394482;28;20205;-82
2024/01/27 08:00:17;;;;;;;2.20;1.43;;;2.70;99.90;;;;;;10410682;28;20213;-83
2024/01/27 08:05:38;;;;;;;2.23;1.20;;;2.80;1.00;;;;;;10397143;28;20209;-83
2024/01/27 08:11:01;;;;;;;1.90;1.40;;;2.80;1.00;;;;;;10317357;28;20513;-81
2024/01/27 08:16:24;;;;;;;2.33;1.17;;;2.70;99.90;;;;;;10397650;28;20246;-83
2024/01/27 08:21:47;;;;;;;2.37;1.27;;;2.60;99.90;;;;;;10365058;28;20234;-83
2024/01/27 08:27:08;;;;;;;6.40;3.33;;;2.70;99.90;;;;;;10363596;28;20206;-81
2024/01/27 08:32:30;;;;;;;11.83;4.60;;;2.70;99.90;;;;;;10324122;28;20313;-81
2024/01/27 08:37:51;;;;;;;16.40;7.33;;;2.70;99.90;;;;;;10341375;28;20407;-83
2024/01/27 08:43:15;;;;;;;11.63;6.10;;;2.80;35.50;;;;;;10326154;28;20205;-81
2024/01/27 08:48:37;;;;;;;6.57;2.90;;;2.70;99.90;;;;;;10371713;28;20196;-82
2024/01/27 08:54:02;;;;;;;5.90;2.87;;;2.80;1.00;;;;;;10299257;28;20484;-81
2024/01/27 08:59:23;;;;;;;3.90;2.30;;;2.70;99.90;;;;;;10292928;28;20250;-81
2024/01/27 09:04:47;;;;;;;12.27;3.90;;;2.80;1.00;;;;;;10299158;28;20202;-82
2024/01/27 09:10:12;;;;;;;5.93;3.00;;;2.80;99.90;;;;;;10303984;28;20207;-81
2024/01/27 09:15:34;;;;;;;5.93;2.27;;;2.80;99.90;;;;;;10417828;28;20208;-82
2024/01/27 09:20:56;;;;;;;5.17;1.90;;;2.90;99.90;;;;;;10469012;28;20264;-83
2024/01/27 09:26:18;;;;;;;5.93;2.10;;;3.00;99.90;;;;;;10474176;28;20544;-82
2024/01/27 09:31:40;;;;;;;7.93;3.13;;;3.20;1.00;;;;;;10478274;28;20200;-84
2024/01/27 09:37:04;;;;;;;7.10;2.17;;;3.20;1.00;;;;;;10491802;28;20295;-84
2024/01/27 09:42:26;;;;;;;7.63;2.20;;;3.20;1.00;;;;;;10366752;28;20195;-83
2024/01/27 09:47:48;;;;;;;8.37;2.10;;;3.30;99.90;;;;;;10373659;28;20206;-83
2024/01/27 09:53:15;;;;;;;9.63;3.00;;;3.20;1.00;;;;;;10371392;28;20202;-83
2024/01/27 09:58:37;;;;;;;11.37;2.83;;;3.30;99.90;;;;;;10366848;28;20226;-82
2024/01/27 10:04:22;;;;;;;8.90;2.83;;;3.30;99.90;;;;;;10355103;28;20207;-82
2024/01/27 10:09:52;;;;;;;16.50;4.10;;;3.40;99.90;;;;;;10293742;28;20547;-84
2024/01/27 10:15:22;;;;;;;13.33;3.43;;;3.30;1.00;;;;;;10328337;28;20195;-84
2024/01/27 10:20:46;;;;;;;9.50;2.87;;;3.40;99.90;;;;;;10403310;28;20390;-83
2024/01/27 10:26:11;;;;;;;9.67;3.20;;;3.50;1.00;;;;;;10323256;28;20222;-82
2024/01/27 10:31:36;;;;;;;14.40;3.40;;;3.50;46.00;;;;;;10387041;28;20207;-82
2024/01/27 10:36:57;;;;;;;10.10;2.50;;;3.50;99.90;;;;;;10352159;28;20222;-83
2024/01/27 10:42:19;;;;;;;4.23;1.73;;;3.50;56.50;;;;;;10343330;28;20277;-82
2024/01/27 10:47:42;;;;;;;6.97;2.47;;;3.40;99.90;;;;;;10378363;28;20248;-83
2024/01/27 10:53:05;;;;;;;11.70;3.23;;;3.50;65.80;;;;;;10415885;28;20201;-84
2024/01/27 10:58:29;;;;;;;7.00;2.03;;;3.50;99.90;;;;;;10382078;28;20232;-83
2024/01/27 11:03:54;;;;;;;8.43;2.43;;;3.60;99.90;;;;;;10414358;28;20592;-83
2024/01/27 11:09:18;;;;;;;8.63;2.60;;;3.60;99.90;;;;;;10297929;28;20522;-83
2024/01/27 11:14:39;;;;;;;7.30;2.20;;;3.70;99.90;;;;;;10311126;28;20194;-83
2024/01/27 11:20:03;;;;;;;10.63;1.80;;;3.80;1.00;;;;;;10371538;28;20314;-84
2024/01/27 11:25:25;;;;;;;7.07;1.90;;;3.90;1.00;;;;;;10355400;28;20200;-83
2024/01/27 11:30:48;;;;;;;6.27;2.13;;;3.90;99.90;;;;;;10371872;28;20215;-83
2024/01/27 11:36:20;;;;;;;6.17;2.17;;;4.30;99.90;;;;;;10347276;28;20212;-84
2024/01/27 11:41:43;;;;;;;5.27;2.23;;;4.40;1.00;;;;;;10315533;28;20498;-84
2024/01/27 11:47:13;;;;;;;5.93;2.03;;;4.40;1.00;;;;;;10411071;28;20195;-84
2024/01/27 11:52:34;;;;;;;8.00;2.27;;;4.40;1.00;;;;;;10313766;28;20226;-83
2024/01/27 11:57:55;;;;;;;13.60;2.90;;;4.30;1.00;;;;;;10308158;28;20254;-81
2024/01/27 12:03:17;;;;;;;9.40;2.83;;;4.30;1.00;;;;;;10352840;28;20203;-82
2024/01/27 12:08:38;;;;;;;6.90;2.50;;;4.30;1.00;;;;;;10365708;28;20217;-82
2024/01/27 12:13:59;;;;;;;12.20;3.33;;;4.40;1.00;;;;;;10414644;28;20207;-82
2024/01/27 12:19:21;;;;;;;16.70;3.87;;;4.50;1.00;;;;;;10506544;28;20422;-84
2024/01/27 12:24:42;;;;;;;12.87;3.10;;;4.60;99.90;;;;;;10504666;28;20204;-84
2024/01/27 12:30:05;;;;;;;17.60;4.67;;;4.70;99.90;;;;;;10370430;28;20235;-83
2024/01/27 12:35:29;;;;;;;10.53;3.57;;;4.90;99.90;;;;;;10368798;28;20508;-84
2024/01/27 12:40:50;;;;;;;9.67;2.73;;;5.40;1.00;;;;;;10357671;28;20519;-84
2024/01/27 12:46:12;;;;;;;10.97;2.90;;;6.00;1.00;;;;;;10295116;28;20409;-84
2024/01/27 12:51:33;;;;;;;12.33;4.53;;;7.00;99.90;;;;;;10382731;28;20398;-84
2024/01/27 12:56:56;;;;;;;8.47;3.30;;;8.20;1.00;;;;;;10280790;28;20422;-85
2024/01/27 13:02:17;;;;;;;12.60;3.53;;;9.00;1.00;;;;;;10393145;28;20298;-83
2024/01/27 13:07:38;;;;;;;10.57;3.70;;;10.00;1.00;;;;;;10325510;28;20207;-82
2024/01/27 13:13:20;;;;;;;9.37;3.60;;;9.80;1.00;;;;;;10368431;28;20211;-82
2024/01/27 13:19:01;;;;;;;13.77;4.73;;;8.80;1.00;;;;;;10516791;28;20240;-81
2024/01/27 13:24:25;;;;;;;11.97;3.83;;;8.00;1.00;;;;;;10433633;28;20276;-81
2024/01/27 13:29:47;;;;;;;18.60;6.53;;;7.50;1.00;;;;;;10334755;28;20270;-83
2024/01/27 13:35:08;;;;;;;21.93;4.80;;;7.00;82.30;;;;;;10333138;28;20212;-82
2024/01/27 13:40:30;;;;;;;11.43;3.27;;;6.60;99.90;;;;;;10321447;28;20275;-83
2024/01/27 13:45:54;;;;;;;13.50;4.17;;;6.30;99.90;;;;;;10360985;28;20210;-83
2024/01/27 13:51:19;;;;;;;12.90;4.17;;;5.90;99.90;;;;;;10361414;28;20287;-82
2024/01/27 13:56:41;;;;;;;17.77;5.03;;;5.80;1.00;;;;;;10264940;28;20248;-81
2024/01/27 14:02:06;;;;;;;12.47;4.07;;;5.60;1.00;;;;;;10266097;28;20235;-84
2024/01/27 14:07:29;;;;;;;22.43;5.50;;;5.50;1.00;;;;;;10336200;28;20205;-84
2024/01/27 14:12:51;;;;;;;22.27;4.80;;;5.30;1.00;;;;;;10387071;28;20444;-83
2024/01/27 14:18:20;;;;;;;12.63;3.50;;;5.20;1.00;;;;;;10476148;28;20266;-82
2024/01/27 14:23:41;;;;;;;16.23;4.70;;;5.00;1.00;;;;;;10460540;28;20204;-84
2024/01/27 14:29:04;;;;;;;21.73;5.50;;;4.90;1.00;;;;;;10287267;28;20219;-84
2024/01/27 14:34:25;;;;;;;16.00;4.67;;;4.80;1.00;;;;;;10335243;28;20200;-84
2024/01/27 14:39:47;;;;;;;17.73;5.80;;;4.70;1.00;;;;;;10348235;28;20231;-84
2024/01/27 14:45:11;;;;;;;21.63;5.87;;;4.60;1.00;;;;;;10277257;28;20201;-83
2024/01/27 14:50:32;;;;;;;21.30;5.30;;;4.50;1.00;;;;;;10364379;28;20409;-81
2024/01/27 14:55:55;;;;;;;31.97;8.23;;;4.50;1.00;;;;;;10319360;28;20490;-81
2024/01/27 15:01:17;;;;;;;19.43;5.90;;;4.30;99.90;;;;;;10377221;28;20200;-82
2024/01/27 15:06:39;;;;;;;22.63;5.83;;;4.40;99.90;;;;;;10321615;28;20278;-82
2024/01/27 15:12:00;;;;;;;30.53;6.83;;;4.30;1.00;;;;;;10361983;28;20390;-82
2024/01/27 15:17:23;;;;;;;24.70;6.20;;;4.20;1.00;;;;;;10419112;28;20219;-84
2024/01/27 15:22:45;;;;;;;25.53;6.00;;;4.10;1.00;;;;;;10504726;28;20483;-83
2024/01/27 15:28:09;;;;;;;16.17;4.53;;;4.00;14.80;;;;;;10275567;28;20552;-84
2024/01/27 15:33:30;;;;;;;30.30;8.37;;;4.00;99.90;;;;;;10371834;28;20200;-83
2024/01/27 15:38:52;;;;;;;22.50;6.37;;;4.00;1.00;;;;;;10371082;28;20237;-83
2024/01/27 15:44:14;;;;;;;24.93;6.40;;;3.90;1.00;;;;;;10381127;28;20391;-83
2024/01/27 15:49:37;;;;;;;28.20;6.10;;;4.00;1.00;;;;;;10380665;28;20270;-84
2024/01/27 15:54:58;;;;;;;23.97;6.27;;;3.90;99.90;;;;;;10364658;28;20199;-81
2024/01/27 16:00:20;;;;;;;25.77;6.43;;;4.00;98.30;;;;;;10353987;28;20230;-82
2024/01/27 16:05:42;;;;;;;23.17;5.87;;;4.00;99.90;;;;;;10288359;28;20204;-83
2024/01/27 16:11:04;;;;;;;29.67;5.70;;;3.90;1.00;;;;;;10432644;28;20198;-83
2024/01/27 16:16:27;;;;;;;18.77;4.93;;;4.00;99.90;;;;;;10367334;28;20237;-84
2024/01/27 16:21:48;;;;;;;29.03;5.70;;;4.10;1.00;;;;;;10508011;28;20530;-83
2024/01/27 16:27:10;;;;;;;28.27;7.40;;;4.10;1.00;;;;;;10385248;28;20200;-83
2024/01/27 16:32:31;;;;;;;27.73;8.60;;;4.00;81.80;;;;;;10367463;28;20210;-83
2024/01/27 16:37:52;;;;;;;27.93;8.17;;;4.10;99.90;;;;;;10375407;28;20569;-83
2024/01/27 16:43:14;;;;;;;37.13;10.97;;;4.10;1.00;;;;;;10370589;28;20306;-83
2024/01/27 16:48:35;;;;;;;38.17;11.00;;;4.20;1.00;;;;;;10364554;28;20210;-84
2024/01/27 16:53:56;;;;;;;31.80;8.27;;;4.20;1.00;;;;;;10395101;28;20237;-85
2024/01/27 16:59:18;;;;;;;26.77;7.87;;;4.20;99.90;;;;;;10286567;28;20232;-83
2024/01/27 17:04:41;;;;;;;45.17;10.97;;;4.20;49.70;;;;;;10354395;28;20196;-83
2024/01/27 17:10:06;;;;;;;26.17;5.50;;;4.30;1.00;;;;;;10369684;28;20204;-85
2024/01/27 17:15:28;;;;;;;28.87;6.00;;;4.30;1.00;;;;;;10333948;28;20196;-84
2024/01/27 17:20:50;;;;;;;29.07;5.70;;;4.40;1.00;;;;;;10503074;28;20253;-84
2024/01/27 17:26:12;;;;;;;25.70;6.60;;;4.30;1.00;;;;;;10327287;28;20200;-84
2024/01/27 17:31:33;;;;;;;28.60;5.73;;;4.40;1.00;;;;;;10394025;28;20269;-84
2024/01/27 17:36:55;;;;;;;21.63;4.73;;;4.30;1.00;;;;;;10399268;28;20231;-84
2024/01/27 17:42:16;;;;;;;21.43;4.73;;;4.40;99.90;;;;;;10318588;28;20438;-84
2024/01/27 17:47:38;;;;;;;22.90;5.67;;;4.50;99.90;;;;;;10362453;28;20206;-85
2024/01/27 17:52:59;;;;;;;26.27;4.63;;;4.40;1.00;;;;;;10375433;28;20219;-84
2024/01/27 17:58:21;;;;;;;32.53;6.37;;;4.50;99.90;;;;;;10284146;28;20223;-83
2024/01/27 18:03:42;;;;;;;19.40;4.90;;;4.40;1.00;;;;;;10282394;28;20438;-84
2024/01/27 18:09:04;;;;;;;39.10;7.67;;;4.40;1.00;;;;;;10276403;28;20207;-83
2024/01/27 18:14:25;;;;;;;23.77;6.23;;;4.40;1.00;;;;;;10356878;28;20212;-85
2024/01/27 18:19:48;;;;;;;31.50;8.23;;;4.40;1.00;;;;;;10289374;28;20253;-85
2024/01/27 18:25:09;;;;;;;27.80;6.30;;;4.30;99.90;;;;;;10406888;28;20208;-84
2024/01/27 18:30:32;;;;;;;26.83;6.83;;;4.40;1.00;;;;;;10264970;28;20204;-85
2024/01/27 18:35:53;;;;;;;19.33;5.03;;;4.30;23.20;;;;;;10337944;28;20207;-83
2024/01/27 18:41:14;;;;;;;25.67;5.53;;;4.40;1.00;;;;;;10296592;28;20705;-82
2024/01/27 18:46:36;;;;;;;22.40;5.43;;;4.40;1.00;;;;;;10365134;28;20230;-82
2024/01/27 18:51:57;;;;;;;17.17;4.67;;;4.40;1.00;;;;;;10364811;28;20203;-81
2024/01/27 18:57:22;;;;;;;21.57;4.17;;;4.40;1.00;;;;;;10378090;28;20240;-81
2024/01/27 19:02:43;;;;;;;17.17;3.93;;;4.40;99.90;;;;;;10312827;28;20407;-83
2024/01/27 19:08:05;;;;;;;24.33;6.33;;;4.40;99.90;;;;;;10345289;28;20246;-84
2024/01/27 19:13:27;;;;;;;31.87;8.90;;;4.40;1.00;;;;;;10396288;28;20278;-83
2024/01/27 19:18:48;;;;;;;51.37;12.20;;;4.40;96.80;;;;;;10521753;28;20239;-82
2024/01/27 19:24:09;;;;;;;38.27;9.50;;;4.40;99.90;;;;;;10521833;28;20383;-82
2024/01/27 19:29:31;;;;;;;36.00;10.40;;;4.40;1.00;;;;;;10366544;28;20216;-83
2024/01/27 19:34:53;;;;;;;38.30;10.43;;;4.50;58.80;;;;;;10355295;28;20192;-81
2024/01/27 19:40:15;;;;;;;67.60;16.07;;;4.50;79.60;;;;;;10403966;28;20235;-83
2024/01/27 19:45:37;;;;;;;52.80;16.70;;;4.50;69.60;;;;;;10399461;28;20270;-84
2024/01/27 19:50:58;;;;;;;26.70;8.00;;;4.40;99.90;;;;;;10381225;28;20205;-83
2024/01/27 19:56:20;;;;;;;21.20;6.80;;;4.50;99.90;;;;;;10410802;28;20209;-84
2024/01/27 20:01:42;;;;;;;23.80;5.87;;;4.50;1.00;;;;;;10396870;28;20235;-82
2024/01/27 20:07:04;;;;;;;21.33;5.13;;;4.40;1.00;;;;;;10382412;28;20217;-80
2024/01/27 20:12:27;;;;;;;24.47;6.07;;;4.40;97.40;;;;;;10380358;28;20199;-83
2024/01/27 20:17:49;;;;;;;16.00;4.30;;;4.40;1.00;;;;;;10460494;28;20521;-81
2024/01/27 20:23:10;;;;;;;14.93;4.23;;;4.40;1.00;;;;;;10505332;28;20393;-81
2024/01/27 20:28:33;;;;;;;21.30;5.37;;;4.50;1.00;;;;;;10352151;28;20802;-82
2024/01/27 20:33:54;;;;;;;21.07;7.30;;;4.40;1.00;;;;;;10379664;28;20453;-84
2024/01/27 20:39:15;;;;;;;17.27;5.37;;;4.50;1.00;;;;;;10385989;28;20604;-81
2024/01/27 20:44:37;;;;;;;16.20;4.77;;;4.40;84.30;;;;;;10324340;28;20195;-84
2024/01/27 20:50:02;;;;;;;19.10;5.30;;;4.50;99.90;;;;;;10267933;28;20250;-83
2024/01/27 20:55:24;;;;;;;11.23;3.73;;;4.50;89.40;;;;;;10341639;28;20242;-82
2024/01/27 21:00:46;;;;;;;13.97;3.57;;;4.50;20.30;;;;;;10337307;28;20518;-82
2024/01/27 21:06:07;;;;;;;14.07;3.63;;;4.50;99.90;;;;;;10254048;28;20189;-83
2024/01/27 21:11:28;;;;;;;14.37;4.17;;;4.50;99.90;;;;;;10301066;28;20202;-83
2024/01/27 21:16:51;;;;;;;13.13;3.73;;;4.50;99.90;;;;;;10437501;28;20204;-83
2024/01/27 21:22:12;;;;;;;11.00;3.80;;;4.50;99.90;;;;;;10516680;28;20298;-84
2024/01/27 21:27:37;;;;;;;13.53;5.27;;;4.60;99.90;;;;;;10396128;28;20212;-83
2024/01/27 21:32:58;;;;;;;13.03;3.90;;;4.60;99.90;;;;;;10356155;28;20202;-83
2024/01/27 21:38:20;;;;;;;13.53;3.67;;;4.60;99.90;;;;;;10364677;28;20231;-84
2024/01/27 21:43:43;;;;;;;15.60;4.07;;;4.60;99.90;;;;;;10279578;28;20428;-84
2024/01/27 21:49:06;;;;;;;8.07;3.40;;;4.60;1.00;;;;;;10279772;28;20204;-84
2024/01/27 21:54:30;;;;;;;13.57;4.00;;;4.60;1.00;;;;;;10265976;28;20205;-84
2024/01/27 21:59:51;;;;;;;13.83;3.47;;;4.60;99.90;;;;;;10390297;28;20225;-84
2024/01/27 22:05:12;;;;;;;15.33;4.20;;;4.60;1.00;;;;;;10385756;28;20208;-83
2024/01/27 22:10:34;;;;;;;11.53;3.30;;;4.60;1.00;;;;;;10319095;28;20203;-84
2024/01/27 22:15:56;;;;;;;13.33;3.63;;;4.60;1.00;;;;;;10350787;28;20486;-83
2024/01/27 22:21:17;;;;;;;14.47;4.13;;;4.70;99.90;;;;;;10279605;28;20310;-82
2024/01/27 22:26:41;;;;;;;10.93;3.27;;;4.60;99.90;;;;;;10380514;28;20217;-83
2024/01/27 22:32:03;;;;;;;14.53;4.50;;;4.60;99.90;;;;;;10366059;28;20237;-84
2024/01/27 22:37:25;;;;;;;19.57;3.93;;;4.60;99.90;;;;;;10309633;28;20203;-84
2024/01/27 22:42:49;;;;;;;10.47;2.83;;;4.60;99.90;;;;;;10374484;28;20261;-84
2024/01/27 22:48:10;;;;;;;14.47;3.70;;;4.70;1.00;;;;;;10336877;28;20203;-83
2024/01/27 22:53:32;;;;;;;8.87;2.50;;;4.70;1.00;;;;;;10388254;28;20217;-84
2024/01/27 22:58:53;;;;;;;10.40;3.13;;;4.60;1.00;;;;;;10367290;28;20227;-82
2024/01/27 23:04:15;;;;;;;12.10;2.73;;;4.60;1.00;;;;;;10370137;28;20204;-84
2024/01/27 23:09:39;;;;;;;14.77;3.13;;;4.70;1.00;;;;;;10359250;28;20222;-83
2024/01/27 23:15:00;;;;;;;11.60;2.90;;;4.60;1.00;;;;;;10323627;28;20207;-81
2024/01/27 23:20:22;;;;;;;11.97;3.00;;;4.70;99.90;;;;;;10456854;28;20578;-83
2024/01/27 23:25:46;;;;;;;12.40;2.83;;;4.70;1.00;;;;;;10276774;28;20455;-84
2024/01/27 23:31:09;;;;;;;11.87;2.87;;;4.70;1.00;;;;;;10346852;28;20206;-83
2024/01/27 23:36:32;;;;;;;10.70;2.77;;;4.70;1.00;;;;;;10282517;28;20203;-83
2024/01/27 23:41:54;;;;;;;20.27;3.17;;;4.70;65.90;;;;;;10334936;28;20310;-82
2024/01/27 23:47:15;;;;;;;9.90;3.23;;;4.70;99.90;;;;;;10310952;28;20216;-84
2024/01/27 23:52:37;;;;;;;12.77;3.13;;;4.70;19.80;;;;;;10317428;28;20290;-84
2024/01/27 23:57:59;;;;;;;15.30;3.63;;;4.70;1.00;;;;;;10297266;28;20208;-84
